Time;durP1;ratioP1;P1;durP2;ratioP2;P2;SDS_P1;SDS_P2;PMS_P1;PMS_P2;Temp;Humidity;BMP_temperature;BMP_pressure;BME280_temperature;BME280_humidity;BME280_pressure;Samples;Min_cycle;Max_cycle;Signal;HPM_P1;HPM_P2
2022/01/21 00:01:18;;;;;;;25.17;2.72;;;;;;;5.82;66.86;103575.78;4961980;28;20211;-59
2022/01/21 00:03:44;;;;;;;11.10;1.48;;;;;;;5.78;66.28;103576.34;4966036;28;20182;-59
2022/01/21 00:06:09;;;;;;;12.60;1.50;;;;;;;5.63;66.94;103576.06;4964829;28;20057;-59
2022/01/21 00:08:36;;;;;;;10.55;1.70;;;;;;;5.55;67.06;103577.16;4972408;28;20390;-59
2022/01/21 00:11:04;;;;;;;17.35;2.03;;;;;;;5.39;67.02;103573.28;4980417;28;20046;-58
2022/01/21 00:13:36;;;;;;;10.00;1.58;;;;;;;5.38;67.00;103574.06;4965006;28;20053;-59
2022/01/21 00:16:02;;;;;;;6.45;1.33;;;;;;;5.28;67.35;103582.81;4972528;28;20061;-59
2022/01/21 00:18:28;;;;;;;12.13;1.70;;;;;;;5.27;67.53;103576.72;4976972;28;20538;-60
2022/01/21 00:31:49;;;;;;;13.35;1.38;;;;;;;4.76;68.64;103581.28;4980355;28;20773;-60
2022/01/21 00:34:14;;;;;;;7.28;1.30;;;;;;;4.76;69.17;103578.69;4979304;28;20075;-59
2022/01/21 00:36:40;;;;;;;8.95;1.45;;;;;;;4.72;69.06;103576.66;4982465;28;20042;-60
2022/01/21 00:39:05;;;;;;;8.48;1.38;;;;;;;4.68;69.09;103579.78;4976898;28;20472;-59
2022/01/21 00:41:35;;;;;;;9.75;1.33;;;;;;;4.66;69.59;103577.84;4956080;28;20105;-59
2022/01/21 00:44:00;;;;;;;9.30;1.27;;;;;;;4.67;69.00;103575.38;4979136;28;20566;-59
2022/01/21 00:46:26;;;;;;;5.95;1.10;;;;;;;4.65;68.88;103578.63;4983760;28;20049;-59
2022/01/21 00:48:51;;;;;;;9.85;1.80;;;;;;;4.64;69.16;103577.72;4974397;28;20045;-59
2022/01/21 00:51:16;;;;;;;10.90;1.30;;;;;;;4.67;69.52;103577.06;4968281;28;20049;-59
2022/01/21 00:53:42;;;;;;;7.10;1.38;;;;;;;4.67;69.48;103580.56;4984942;28;20092;-61
2022/01/21 00:56:07;;;;;;;8.07;1.50;;;;;;;4.67;69.75;103580.56;4956349;28;20046;-60
2022/01/21 00:58:33;;;;;;;7.28;1.00;;;;;;;4.74;69.65;103580.28;4981570;28;20148;-59
2022/01/21 01:00:58;;;;;;;13.23;1.52;;;;;;;4.81;70.04;103580.00;4979338;28;20505;-59
2022/01/21 01:03:23;;;;;;;10.15;1.23;;;;;;;4.89;69.94;103585.75;4973181;28;20062;-59
2022/01/21 01:05:52;;;;;;;9.00;1.25;;;;;;;4.99;70.01;103588.28;4985779;28;20048;-59
2022/01/21 01:08:18;;;;;;;10.93;1.35;;;;;;;5.08;69.84;103591.59;4954098;28;20041;-58
2022/01/21 01:21:27;;;;;;;12.95;1.55;;;;;;;5.29;70.41;103582.94;4981870;28;22099;-59
2022/01/21 01:27:35;;;;;;;8.73;1.25;;;;;;;5.42;70.14;103579.63;4982160;28;20598;-59
2022/01/21 01:29:31;;;;;;;9.15;1.42;;;;;;;5.37;69.68;103580.91;4978833;28;20123;-59
2022/01/21 01:31:57;;;;;;;7.25;1.10;;;;;;;5.33;70.07;103571.13;4977348;28;20144;-58
2022/01/21 01:34:23;;;;;;;8.55;1.52;;;;;;;5.31;70.11;103583.94;4986637;28;20593;-59
2022/01/21 01:36:48;;;;;;;8.32;1.20;;;;;;;5.38;70.13;103587.00;4979128;28;20325;-59
2022/01/21 01:39:19;;;;;;;6.65;1.10;;;;;;;5.53;70.54;103588.19;4974624;28;20515;-59
2022/01/21 01:42:10;;;;;;;9.50;1.30;;;;;;;5.72;70.29;103591.41;4972575;28;20136;-59
2022/01/21 01:50:05;;;;;;;11.48;1.40;;;;;;;5.72;69.34;103581.06;4985274;28;20092;-58
2022/01/21 01:52:31;;;;;;;7.40;1.00;;;;;;;5.63;69.29;103583.81;4983727;28;20034;-58
2022/01/21 01:54:56;;;;;;;8.27;1.08;;;;;;;5.60;69.63;103583.63;4986006;28;20092;-59
2022/01/21 01:57:23;;;;;;;9.02;1.10;;;;;;;5.62;69.61;103588.88;4974757;28;20271;-59
2022/01/21 01:59:48;;;;;;;9.50;1.10;;;;;;;5.61;69.88;103579.34;4984394;28;20050;-59
2022/01/21 02:02:16;;;;;;;7.60;1.02;;;;;;;5.59;69.37;103571.44;4975732;28;20246;-59
2022/01/21 02:04:43;;;;;;;5.85;1.05;;;;;;;5.52;69.51;103576.94;4981416;28;20143;-59
2022/01/21 02:07:09;;;;;;;9.48;1.10;;;;;;;5.39;69.52;103569.00;4955336;28;20034;-60
2022/01/21 02:09:35;;;;;;;7.20;1.00;;;;;;;5.28;70.12;103568.19;4983226;28;20046;-59
2022/01/21 02:12:01;;;;;;;7.82;1.40;;;;;;;5.30;70.25;103569.22;4965467;28;20076;-59
2022/01/21 02:14:30;;;;;;;7.60;0.90;;;;;;;5.24;70.19;103571.34;4983830;28;20050;-59
2022/01/21 02:22:25;;;;;;;9.48;1.25;;;;;;;5.03;70.20;103586.84;4972719;28;20401;-59
2022/01/21 02:24:58;;;;;;;9.15;1.17;;;;;;;4.90;70.74;103579.78;4976996;28;20057;-59
2022/01/21 02:27:23;;;;;;;3.80;0.80;;;;;;;4.88;70.61;103590.00;4970434;28;20110;-59
2022/01/21 02:29:52;;;;;;;7.95;1.20;;;;;;;4.90;70.83;103582.38;4983654;28;20058;-59
2022/01/21 02:32:19;;;;;;;7.03;1.13;;;;;;;4.93;71.03;103592.06;4985031;28;20042;-60
2022/01/21 02:34:46;;;;;;;8.25;0.90;;;;;;;4.85;70.81;103584.59;4979729;28;20045;-59
2022/01/21 02:37:16;;;;;;;7.47;1.00;;;;;;;4.80;71.42;103593.69;4979575;28;20412;-59
2022/01/21 02:39:41;;;;;;;5.30;1.00;;;;;;;4.77;70.81;103580.50;4980583;28;20037;-60
2022/01/21 02:42:07;;;;;;;6.75;1.25;;;;;;;4.78;71.24;103584.00;4979089;28;20052;-58
2022/01/21 02:44:32;;;;;;;4.97;1.10;;;;;;;4.81;71.42;103581.66;4983004;28;20041;-58
2022/01/21 02:47:01;;;;;;;5.55;1.10;;;;;;;4.85;71.38;103581.13;4975035;28;20056;-58
2022/01/21 02:49:27;;;;;;;7.80;1.10;;;;;;;4.96;71.50;103584.53;4979864;28;21354;-59
2022/01/21 02:51:55;;;;;;;10.02;1.75;;;;;;;5.07;71.33;103581.13;4973437;28;20367;-60
2022/01/21 02:54:21;;;;;;;9.77;1.30;;;;;;;5.09;71.95;103577.88;4983637;28;20508;-58
2022/01/21 02:56:47;;;;;;;6.97;1.10;;;;;;;5.04;71.93;103580.88;4978340;28;20053;-58
2022/01/21 02:59:12;;;;;;;6.28;0.90;;;;;;;4.90;71.76;103572.03;4972780;28;20046;-58
2022/01/21 03:01:40;;;;;;;8.68;1.00;;;;;;;4.80;71.13;103573.00;4981769;28;20038;-59
2022/01/21 03:04:08;;;;;;;6.00;0.90;;;;;;;4.77;71.33;103569.25;4978518;28;20053;-59
2022/01/21 03:06:35;;;;;;;4.63;1.05;;;;;;;4.66;71.19;103563.25;4977181;28;20771;-59
2022/01/21 03:09:02;;;;;;;6.28;1.00;;;;;;;4.62;71.26;103558.63;4950599;28;20050;-59
2022/01/21 03:11:27;;;;;;;9.48;1.13;;;;;;;4.57;71.61;103557.34;4974674;28;21394;-58
2022/01/21 03:13:53;;;;;;;9.00;1.17;;;;;;;4.55;71.39;103569.22;4962291;28;20455;-59
2022/01/21 03:16:19;;;;;;;12.35;1.38;;;;;;;4.52;71.30;103574.13;4983484;28;20073;-58
2022/01/21 03:18:44;;;;;;;4.93;0.98;;;;;;;4.47;71.56;103578.03;4978414;28;20819;-60
2022/01/21 03:21:22;;;;;;;6.55;0.90;;;;;;;4.43;71.38;103568.25;4975098;28;20483;-58
2022/01/21 03:23:49;;;;;;;12.10;1.20;;;;;;;4.43;71.74;103570.84;4984478;28;20350;-59
2022/01/21 03:26:16;;;;;;;5.43;0.95;;;;;;;4.37;71.66;103571.25;4976729;28;20954;-60
2022/01/21 03:28:43;;;;;;;5.07;0.80;;;;;;;4.33;70.96;103571.75;4979720;28;20062;-59
2022/01/21 03:31:08;;;;;;;10.10;1.00;;;;;;;4.31;71.37;103580.16;4971175;28;20369;-59
2022/01/21 03:33:34;;;;;;;6.35;1.15;;;;;;;4.25;71.87;103574.50;4983325;28;20061;-60
2022/01/21 03:35:59;;;;;;;2.40;0.63;;;;;;;4.24;71.49;103577.84;4981471;28;21087;-59
2022/01/21 03:38:26;;;;;;;5.15;0.68;;;;;;;4.24;71.28;103571.00;4977819;28;20046;-60
2022/01/21 03:40:52;;;;;;;3.28;0.80;;;;;;;4.23;71.92;103571.78;4982486;28;20045;-59
2022/01/21 03:43:19;;;;;;;8.35;1.02;;;;;;;4.31;72.03;103569.84;4973276;28;20046;-58
2022/01/21 03:45:44;;;;;;;7.80;1.00;;;;;;;4.43;71.96;103570.84;4982988;28;20042;-59
2022/01/21 03:48:10;;;;;;;8.10;1.00;;;;;;;4.65;72.16;103576.94;4977427;28;20123;-60
2022/01/21 03:50:35;;;;;;;7.68;0.70;;;;;;;4.85;72.43;103578.53;4976969;28;20048;-59
2022/01/21 03:53:05;;;;;;;6.68;1.20;;;;;;;4.90;72.56;103582.38;4976162;28;20041;-59
2022/01/21 03:55:31;;;;;;;7.93;1.00;;;;;;;4.89;72.71;103588.31;4970912;28;20049;-58
2022/01/21 03:57:58;;;;;;;4.00;0.73;;;;;;;4.82;72.33;103581.75;4971632;28;20527;-58
2022/01/21 04:00:27;;;;;;;4.65;0.60;;;;;;;4.81;72.18;103592.00;4979191;28;20037;-59
2022/01/21 04:02:53;;;;;;;5.60;0.80;;;;;;;4.72;72.02;103593.84;4961719;28;20029;-59
2022/01/21 04:05:18;;;;;;;11.98;1.00;;;;;;;4.69;71.71;103598.78;4955874;28;20056;-59
2022/01/21 04:07:44;;;;;;;6.53;1.10;;;;;;;4.68;72.14;103590.13;4969227;28;20548;-59
2022/01/21 04:10:10;;;;;;;4.47;0.80;;;;;;;4.69;71.76;103591.94;4978357;28;20043;-59
2022/01/21 04:12:36;;;;;;;5.22;0.95;;;;;;;4.65;72.01;103592.44;4959811;28;20082;-59
2022/01/21 04:15:02;;;;;;;6.00;0.85;;;;;;;4.61;71.97;103599.81;4965732;28;20659;-60
2022/01/21 04:17:28;;;;;;;8.70;1.00;;;;;;;4.56;72.34;103591.72;4954713;28;20635;-59
2022/01/21 04:19:54;;;;;;;10.75;1.38;;;;;;;4.57;72.25;103595.19;4955299;28;20435;-59
2022/01/21 04:22:20;;;;;;;7.50;1.10;;;;;;;4.61;72.53;103598.16;4965338;28;20054;-59
2022/01/21 04:24:47;;;;;;;6.70;1.10;;;;;;;4.64;72.58;103587.13;4955054;28;20141;-59
2022/01/21 04:27:13;;;;;;;6.72;1.25;;;;;;;4.69;72.81;103594.50;4949979;28;20521;-59
2022/01/21 04:29:38;;;;;;;9.95;1.52;;;;;;;4.74;72.90;103594.88;4950657;28;20054;-59
2022/01/21 04:32:04;;;;;;;8.15;1.38;;;;;;;4.68;72.05;103595.28;4961747;28;20225;-59
2022/01/21 04:34:30;;;;;;;9.70;1.20;;;;;;;4.67;72.28;103589.97;4956466;28;20422;-59
2022/01/21 04:36:55;;;;;;;6.80;1.25;;;;;;;4.63;71.72;103590.53;4967271;28;20045;-59
2022/01/21 04:39:27;;;;;;;6.13;1.08;;;;;;;4.54;71.91;103588.09;4961653;28;20038;-59
2022/01/21 04:47:17;;;;;;;7.70;1.23;;;;;;;4.56;71.93;103591.72;4948416;28;20097;-59
2022/01/21 04:47:23;;;;;;;4.20;1.08;;;;;;;4.43;71.75;103602.72;4958388;28;20348;-59
2022/01/21 04:49:49;;;;;;;5.00;0.90;;;;;;;4.39;71.54;103597.19;4961964;28;20294;-59
2022/01/21 04:52:15;;;;;;;5.07;0.90;;;;;;;4.38;72.04;103596.28;4964758;28;20046;-60
2022/01/21 04:54:40;;;;;;;5.57;0.95;;;;;;;4.35;72.07;103596.03;4965474;28;20054;-59
2022/01/21 04:57:07;;;;;;;4.20;1.02;;;;;;;4.30;71.93;103599.00;4946668;28;20046;-59
2022/01/21 04:59:32;;;;;;;8.60;1.08;;;;;;;4.31;72.11;103598.25;4954811;28;20894;-60
2022/01/21 05:01:58;;;;;;;4.88;1.10;;;;;;;4.29;72.07;103607.53;4965385;28;20042;-59
2022/01/21 05:04:23;;;;;;;3.42;0.80;;;;;;;4.28;71.74;103605.72;4964143;28;20081;-59
2022/01/21 05:06:51;;;;;;;5.30;0.80;;;;;;;4.24;71.64;103606.25;4961645;28;20125;-59
2022/01/21 05:09:18;;;;;;;6.90;0.95;;;;;;;4.15;71.96;103598.63;4955709;28;20156;-60
2022/01/21 05:11:45;;;;;;;7.43;1.00;;;;;;;4.18;71.58;103596.34;4964078;28;20076;-60
2022/01/21 05:14:17;;;;;;;4.25;1.00;;;;;;;4.13;71.57;103596.72;4948523;28;20050;-59
2022/01/21 05:16:49;;;;;;;7.20;0.95;;;;;;;4.08;71.68;103586.94;4959426;28;20064;-60
2022/01/21 05:19:16;;;;;;;3.90;1.25;;;;;;;4.07;71.22;103586.81;4959166;28;20043;-59
2022/01/21 05:21:43;;;;;;;4.18;1.00;;;;;;;4.03;71.30;103583.03;4955537;28;20397;-58
2022/01/21 05:24:08;;;;;;;3.33;1.13;;;;;;;4.02;71.76;103586.44;4957787;28;20474;-59
2022/01/21 05:26:39;;;;;;;5.75;1.05;;;;;;;4.12;72.04;103580.34;4961586;28;20086;-59
2022/01/21 05:29:06;;;;;;;7.75;1.52;;;;;;;4.26;72.08;103586.63;4945071;28;20069;-58
2022/01/21 05:31:31;;;;;;;5.68;1.10;;;;;;;4.38;72.60;103585.97;4954821;28;20061;-58
2022/01/21 05:33:57;;;;;;;8.73;1.40;;;;;;;4.50;72.87;103586.06;4957256;28;20272;-58
2022/01/21 05:36:23;;;;;;;7.68;1.40;;;;;;;4.67;73.17;103585.72;4967704;28;20325;-59
2022/01/21 05:38:49;;;;;;;11.73;1.20;;;;;;;4.81;72.89;103581.66;4961091;28;20181;-59
2022/01/21 05:41:14;;;;;;;11.05;1.33;;;;;;;4.94;72.81;103583.53;4948642;28;20132;-59
2022/01/21 05:43:45;;;;;;;7.75;1.17;;;;;;;4.96;72.69;103579.38;4963389;28;20042;-59
2022/01/21 05:46:28;;;;;;;11.50;1.00;;;;;;;4.95;72.81;103575.88;4956935;28;20046;-59
2022/01/21 05:48:54;;;;;;;5.75;0.90;;;;;;;4.90;72.68;103578.13;4965640;28;20046;-59
2022/01/21 05:51:19;;;;;;;7.85;1.10;;;;;;;4.85;72.67;103578.53;4957928;28;20501;-60
2022/01/21 05:53:45;;;;;;;4.78;0.80;;;;;;;4.78;72.00;103577.13;4951356;28;20046;-58
2022/01/21 05:56:12;;;;;;;8.65;1.30;;;;;;;4.76;72.04;103568.34;4960176;28;20042;-58
2022/01/21 05:58:37;;;;;;;8.43;1.20;;;;;;;4.78;72.67;103573.66;4962359;28;20553;-57
2022/01/21 06:01:03;;;;;;;6.38;1.25;;;;;;;4.76;72.06;103581.28;4958481;28;20357;-58
2022/01/21 06:03:31;;;;;;;7.55;1.50;;;;;;;4.72;71.95;103586.09;4960570;28;20121;-59
2022/01/21 06:05:56;;;;;;;11.25;1.23;;;;;;;4.72;71.90;103596.41;4961817;28;20506;-60
2022/01/21 06:08:21;;;;;;;5.32;1.02;;;;;;;4.79;72.61;103588.38;4961814;28;20335;-60
2022/01/21 06:10:47;;;;;;;4.63;1.20;;;;;;;4.87;72.39;103595.97;4983758;28;20038;-59
2022/01/21 06:13:17;;;;;;;9.13;1.40;;;;;;;4.98;72.95;103606.25;4975902;28;20382;-60
2022/01/21 06:15:43;;;;;;;6.63;1.27;;;;;;;5.06;73.12;103606.06;4985275;28;20049;-60
2022/01/21 06:18:09;;;;;;;9.23;1.60;;;;;;;5.12;72.92;103600.50;4966602;28;20471;-60
2022/01/21 06:20:34;;;;;;;8.50;1.70;;;;;;;5.16;72.93;103598.28;4985173;28;20046;-60
2022/01/21 06:22:59;;;;;;;10.82;1.40;;;;;;;5.20;73.04;103597.72;4980084;28;20041;-58
2022/01/21 06:25:25;;;;;;;7.05;1.42;;;;;;;5.24;73.01;103606.63;4948457;28;20207;-59
2022/01/21 06:27:50;;;;;;;12.80;1.73;;;;;;;5.23;72.82;103603.16;4980484;28;20033;-59
2022/01/21 06:30:16;;;;;;;5.93;1.58;;;;;;;5.17;72.73;103612.09;4981741;28;20130;-58
2022/01/21 06:32:41;;;;;;;8.20;1.45;;;;;;;5.10;72.49;103609.81;4983694;28;20139;-60
2022/01/21 06:35:09;;;;;;;9.00;1.45;;;;;;;5.04;72.60;103618.00;4963705;28;20455;-59
2022/01/21 06:37:34;;;;;;;6.85;1.50;;;;;;;4.98;72.14;103620.09;4984263;28;20381;-59
2022/01/21 06:40:00;;;;;;;9.27;1.52;;;;;;;4.97;72.16;103626.03;4948296;28;20485;-59
2022/01/21 06:42:27;;;;;;;10.68;1.88;;;;;;;4.93;72.39;103615.34;4964979;28;20046;-59
2022/01/21 06:44:52;;;;;;;13.63;1.45;;;;;;;4.93;72.96;103625.69;4979286;28;20037;-59
2022/01/21 06:47:19;;;;;;;10.70;1.80;;;;;;;4.97;73.32;103622.53;4968318;28;20472;-59
2022/01/21 06:49:46;;;;;;;8.07;1.80;;;;;;;5.05;73.09;103622.38;4965367;28;20112;-59
2022/01/21 06:52:11;;;;;;;9.48;2.70;;;;;;;5.06;73.32;103620.72;4979460;28;20833;-59
2022/01/21 06:54:37;;;;;;;11.15;2.28;;;;;;;4.95;73.28;103619.84;4977801;28;20351;-59
2022/01/21 06:57:03;;;;;;;9.73;2.30;;;;;;;4.90;72.61;103613.41;4977857;28;20037;-58
2022/01/21 06:59:29;;;;;;;8.07;1.88;;;;;;;4.86;72.67;103609.69;4974864;28;20072;-61
2022/01/21 07:01:54;;;;;;;9.65;1.75;;;;;;;4.98;73.14;103612.34;4974953;28;20132;-60
2022/01/21 07:04:20;;;;;;;8.95;2.00;;;;;;;4.95;73.21;103612.06;4980078;28;20053;-60
2022/01/21 07:06:45;;;;;;;14.02;1.80;;;;;;;5.02;73.44;103614.38;4984029;28;20124;-59
2022/01/21 07:09:11;;;;;;;14.32;1.40;;;;;;;5.17;73.19;103609.53;4972976;28;20136;-59
2022/01/21 07:11:36;;;;;;;13.43;1.40;;;;;;;5.29;72.61;103615.66;4964062;28;20057;-58
2022/01/21 07:14:01;;;;;;;9.65;1.45;;;;;;;5.30;72.96;103612.28;4982832;28;20045;-60
2022/01/21 07:16:27;;;;;;;12.43;1.50;;;;;;;5.34;72.43;103611.75;4981340;28;20420;-59
2022/01/21 07:18:52;;;;;;;12.80;1.80;;;;;;;5.40;72.54;103619.97;4968885;28;20520;-58
2022/01/21 07:21:18;;;;;;;14.48;1.75;;;;;;;5.51;72.46;103623.38;4958136;28;20034;-60
2022/01/21 07:23:43;;;;;;;10.77;1.50;;;;;;;5.56;72.21;103619.47;4984142;28;20459;-60
2022/01/21 07:26:09;;;;;;;12.10;1.80;;;;;;;5.63;72.24;103629.50;4982015;28;20400;-59
2022/01/21 07:28:34;;;;;;;10.32;1.55;;;;;;;5.66;72.10;103640.13;4973447;28;20046;-59
2022/01/21 07:31:00;;;;;;;14.50;1.85;;;;;;;5.63;71.83;103630.41;4983525;28;20046;-60
2022/01/21 07:33:25;;;;;;;13.75;1.50;;;;;;;5.65;71.58;103639.22;4972905;28;20334;-61
2022/01/21 07:35:52;;;;;;;9.48;1.50;;;;;;;5.62;71.56;103644.13;4982575;28;20037;-60
2022/01/21 07:38:18;;;;;;;7.22;1.50;;;;;;;5.55;71.77;103640.97;4959039;28;20037;-60
2022/01/21 07:40:44;;;;;;;13.13;1.63;;;;;;;5.46;71.55;103648.91;4961232;28;20458;-60
2022/01/21 07:43:09;;;;;;;15.40;1.70;;;;;;;5.45;71.75;103641.03;4977890;28;20358;-59
2022/01/21 07:45:35;;;;;;;8.38;1.27;;;;;;;5.54;71.35;103634.91;4977520;28;20064;-59
2022/01/21 07:48:00;;;;;;;8.20;1.50;;;;;;;5.63;71.54;103630.41;4980654;28;20161;-59
2022/01/21 07:50:26;;;;;;;8.20;1.40;;;;;;;5.71;71.83;103638.78;4966503;28;20202;-60
2022/01/21 07:52:51;;;;;;;12.80;1.67;;;;;;;5.82;72.29;103642.19;4980248;28;20414;-60
2022/01/21 07:55:17;;;;;;;7.50;1.42;;;;;;;6.02;72.18;103644.66;4976203;28;20176;-58
2022/01/21 07:57:42;;;;;;;13.70;1.98;;;;;;;6.12;71.81;103654.91;4979683;28;20140;-60
2022/01/21 08:00:09;;;;;;;10.65;1.70;;;;;;;6.34;71.76;103652.25;4977298;28;20128;-58
2022/01/21 08:02:34;;;;;;;15.00;1.92;;;;;;;6.49;71.77;103630.06;4981994;28;20046;-60
2022/01/21 08:05:02;;;;;;;11.75;1.85;;;;;;;6.61;71.87;103632.63;4981946;28;20662;-60
2022/01/21 08:07:28;;;;;;;8.48;1.90;;;;;;;6.78;71.67;103637.34;4974290;28;23543;-59
2022/01/21 08:09:54;;;;;;;12.52;1.75;;;;;;;6.76;71.66;103639.88;4946878;28;20038;-59
2022/01/21 08:12:20;;;;;;;14.57;1.90;;;;;;;6.78;71.85;103635.66;4958687;28;20527;-59
2022/01/21 08:14:45;;;;;;;13.23;1.50;;;;;;;6.84;71.46;103635.22;4982027;28;20059;-60
2022/01/21 08:17:11;;;;;;;10.07;1.63;;;;;;;6.89;71.46;103639.06;4965820;28;20046;-60
2022/01/21 08:19:36;;;;;;;10.50;1.60;;;;;;;6.95;71.45;103644.69;4976227;28;20596;-60
2022/01/21 08:22:02;;;;;;;12.85;1.88;;;;;;;7.04;71.52;103644.44;4982930;28;20053;-60
2022/01/21 08:24:28;;;;;;;18.60;2.00;;;;;;;7.15;71.51;103654.78;4979734;28;20042;-60
2022/01/21 08:26:53;;;;;;;10.85;1.73;;;;;;;7.32;71.46;103648.19;4980497;28;20168;-60
2022/01/21 08:29:18;;;;;;;12.07;1.67;;;;;;;7.48;71.48;103653.69;4979742;28;20175;-60
2022/01/21 08:31:45;;;;;;;11.48;1.73;;;;;;;7.73;71.36;103645.91;4974672;28;20057;-60
2022/01/21 08:34:11;;;;;;;11.68;1.98;;;;;;;7.81;70.71;103649.03;4969309;28;20103;-61
2022/01/21 08:36:38;;;;;;;12.82;1.90;;;;;;;7.81;69.94;103642.09;4958127;28;20513;-60
2022/01/21 08:39:04;;;;;;;12.48;1.95;;;;;;;7.75;69.61;103642.59;4978270;28;20061;-60
2022/01/21 08:41:29;;;;;;;11.18;2.00;;;;;;;7.81;69.67;103643.84;4968902;28;20615;-60
2022/01/21 08:43:54;;;;;;;12.77;1.88;;;;;;;7.82;69.80;103643.00;4959441;28;20042;-60
2022/01/21 08:46:21;;;;;;;9.95;1.95;;;;;;;7.86;69.39;103638.16;4980091;28;20111;-60
2022/01/21 08:48:46;;;;;;;11.20;1.83;;;;;;;7.97;69.64;103639.78;4976446;28;20321;-60
2022/01/21 08:51:14;;;;;;;8.63;1.95;;;;;;;8.05;68.76;103629.91;4971480;28;20687;-59
2022/01/21 08:53:42;;;;;;;12.77;1.92;;;;;;;8.16;68.79;103631.53;4977543;28;20292;-59
2022/01/21 08:56:12;;;;;;;12.32;1.75;;;;;;;8.22;68.73;103625.84;4971999;28;20046;-59
2022/01/21 08:58:38;;;;;;;10.27;1.70;;;;;;;8.33;68.89;103635.28;4983008;28;20552;-60
2022/01/21 09:01:04;;;;;;;17.33;1.67;;;;;;;8.41;68.54;103631.50;4972279;28;20084;-59
2022/01/21 09:03:29;;;;;;;10.10;1.67;;;;;;;8.51;68.88;103632.19;4962315;28;20042;-60
2022/01/21 09:05:55;;;;;;;9.95;1.50;;;;;;;8.55;68.16;103628.06;4974554;28;20061;-59
2022/01/21 09:08:23;;;;;;;12.48;1.80;;;;;;;8.61;68.30;103625.88;4980106;28;20041;-59
2022/01/21 09:10:54;;;;;;;12.38;1.70;;;;;;;8.66;68.20;103626.19;4980316;28;20417;-59
2022/01/21 09:13:22;;;;;;;13.20;1.85;;;;;;;8.68;67.24;103628.06;4968479;28;20447;-59
2022/01/21 09:15:47;;;;;;;11.02;2.03;;;;;;;8.63;66.71;103626.88;4962126;28;20045;-58
2022/01/21 09:18:18;;;;;;;10.27;1.50;;;;;;;8.73;67.18;103626.66;4979416;28;20037;-60
2022/01/21 09:20:43;;;;;;;14.30;1.77;;;;;;;8.80;67.40;103618.47;4960467;28;20069;-59
2022/01/21 09:23:08;;;;;;;11.00;2.10;;;;;;;8.85;67.07;103626.56;4971377;28;20483;-59
2022/01/21 09:25:35;;;;;;;12.77;1.95;;;;;;;8.93;66.89;103617.56;4969641;28;20038;-59
2022/01/21 09:28:01;;;;;;;13.30;1.80;;;;;;;9.00;66.35;103627.56;4975635;28;20053;-60
2022/01/21 09:30:26;;;;;;;11.57;1.60;;;;;;;8.96;66.36;103620.38;4975861;28;20816;-60
2022/01/21 09:32:52;;;;;;;17.50;1.70;;;;;;;9.15;66.58;103625.03;4984731;28;20034;-59
2022/01/21 09:35:18;;;;;;;13.15;1.50;;;;;;;9.24;66.12;103636.00;4973552;28;21213;-60
2022/01/21 09:37:43;;;;;;;11.32;1.40;;;;;;;9.26;66.06;103622.28;4975131;28;20058;-60
2022/01/21 09:40:09;;;;;;;7.97;1.10;;;;;;;9.39;65.45;103629.16;4970658;28;20564;-60
2022/01/21 09:42:36;;;;;;;7.40;1.25;;;;;;;9.42;65.46;103628.44;4982809;28;20132;-60
2022/01/21 09:45:08;;;;;;;9.30;1.13;;;;;;;9.47;66.10;103634.81;4963546;28;20049;-60
2022/01/21 09:47:43;;;;;;;10.05;1.23;;;;;;;9.44;65.97;103635.53;4979551;28;20131;-60
2022/01/21 09:50:09;;;;;;;8.93;1.10;;;;;;;9.44;66.52;103627.72;4978791;28;20080;-59
2022/01/21 09:52:36;;;;;;;8.70;1.25;;;;;;;9.52;66.04;103634.28;4981704;28;20294;-59
2022/01/21 09:55:02;;;;;;;6.13;1.02;;;;;;;9.64;66.17;103641.94;4970826;28;20433;-59
2022/01/21 09:57:29;;;;;;;7.00;1.10;;;;;;;9.58;65.97;103650.28;4977972;28;20112;-59
2022/01/21 09:59:55;;;;;;;6.18;1.10;;;;;;;9.53;65.78;103650.81;4966807;28;20088;-60
2022/01/21 10:02:26;;;;;;;8.77;1.30;;;;;;;9.60;65.87;103645.19;4975401;28;20209;-60
2022/01/21 10:04:52;;;;;;;9.55;1.40;;;;;;;9.70;66.08;103648.44;4983236;28;20034;-60
2022/01/21 10:07:19;;;;;;;7.25;1.05;;;;;;;9.65;65.80;103656.78;4964016;28;20452;-60
2022/01/21 10:09:46;;;;;;;17.50;1.30;;;;;;;9.71;66.09;103651.94;4966674;28;20114;-60
2022/01/21 10:12:12;;;;;;;14.13;1.50;;;;;;;9.78;65.66;103652.41;4986999;28;20048;-60
2022/01/21 10:14:38;;;;;;;8.15;1.30;;;;;;;9.98;66.05;103651.03;4982170;28;20323;-60
2022/01/21 10:17:05;;;;;;;9.20;1.33;;;;;;;10.16;65.44;103656.44;4981300;28;20492;-59
2022/01/21 10:19:35;;;;;;;7.63;1.30;;;;;;;10.39;65.18;103657.81;4978860;28;20453;-60
2022/01/21 10:22:12;;;;;;;10.88;1.48;;;;;;;10.48;64.35;103656.66;4982747;28;20049;-59
2022/01/21 10:24:54;;;;;;;7.57;1.30;;;;;;;10.43;64.05;103663.28;4982888;28;20052;-58
2022/01/21 10:27:32;;;;;;;13.32;1.83;;;;;;;10.41;63.67;103666.63;4975294;28;20092;-60
2022/01/21 10:29:57;;;;;;;10.43;1.48;;;;;;;10.32;63.20;103660.84;4957185;28;20784;-60
2022/01/21 10:32:41;;;;;;;10.50;1.40;;;;;;;9.99;63.58;103649.31;4980689;28;20903;-59
2022/01/21 10:35:35;;;;;;;12.65;1.40;;;;;;;10.22;63.19;103658.53;4976288;28;20123;-61
2022/01/21 10:38:29;;;;;;;10.25;1.48;;;;;;;10.32;63.06;103651.31;4978673;28;20050;-59
2022/01/21 10:41:15;;;;;;;10.00;1.35;;;;;;;10.27;62.91;103649.25;4985238;28;20045;-59
2022/01/21 10:43:42;;;;;;;13.93;1.30;;;;;;;10.34;63.59;103641.00;4969709;28;20385;-59
2022/01/21 10:46:07;;;;;;;8.60;1.45;;;;;;;10.37;63.84;103641.19;4984213;28;20041;-60
2022/01/21 10:49:06;;;;;;;9.45;1.40;;;;;;;10.35;63.32;103642.78;4980710;28;20248;-59
2022/01/21 10:51:35;;;;;;;13.70;1.60;;;;;;;10.40;63.35;103652.69;4979959;28;20425;-61
2022/01/21 10:54:15;;;;;;;9.32;1.65;;;;;;;10.48;63.37;103645.31;4985343;28;20038;-59
2022/01/21 10:56:40;;;;;;;13.95;1.45;;;;;;;10.36;62.89;103640.28;4972534;28;20061;-60
2022/01/21 10:59:21;;;;;;;8.13;1.40;;;;;;;10.45;63.09;103646.03;4984134;28;20042;-59
2022/01/21 11:01:58;;;;;;;11.38;1.63;;;;;;;10.42;62.48;103640.66;4978354;28;20073;-61
2022/01/21 11:04:23;;;;;;;17.08;1.85;;;;;;;10.32;63.09;103635.69;4971307;28;20045;-60
2022/01/21 11:06:55;;;;;;;12.65;1.50;;;;;;;10.17;63.19;103626.97;4982558;28;20312;-61
2022/01/21 11:09:24;;;;;;;7.25;1.52;;;;;;;10.11;63.29;103629.19;4970023;28;20052;-59
2022/01/21 11:12:09;;;;;;;10.73;1.40;;;;;;;10.18;63.17;103639.22;4976983;28;20137;-59
2022/01/21 11:14:35;;;;;;;;;;;;;;;10.34;63.06;103638.38;4975834;28;20050;-58
2022/01/21 11:17:08;;;;;;;9.00;1.30;;;;;;;10.47;62.85;103639.19;4980833;28;19991;-60
2022/01/21 11:19:35;;;;;;;11.35;1.27;;;;;;;10.47;62.29;103633.06;4965647;28;20092;-59
2022/01/21 11:22:04;;;;;;;10.13;1.80;;;;;;;10.52;62.46;103635.13;4971995;28;20095;-60
2022/01/21 11:24:30;;;;;;;13.00;1.70;;;;;;;10.51;62.34;103640.25;4959393;28;20042;-60
2022/01/21 11:27:16;;;;;;;14.55;1.60;;;;;;;10.47;62.44;103636.59;4984497;28;20064;-59
2022/01/21 11:29:43;;;;;;;7.07;1.27;;;;;;;10.63;62.04;103637.44;4960845;28;20060;-59
2022/01/21 11:32:09;;;;;;;13.75;2.10;;;;;;;10.63;62.31;103645.28;4981104;28;20383;-59
2022/01/21 11:34:35;;;;;;;13.57;1.90;;;;;;;10.64;61.75;103655.81;4976328;28;20041;-60
2022/01/21 11:37:01;;;;;;;10.23;1.60;;;;;;;10.50;61.44;103646.28;4977606;28;20061;-59
2022/01/21 11:39:27;;;;;;;9.68;1.80;;;;;;;10.60;61.25;103640.81;4972888;28;20289;-60
2022/01/21 11:41:55;;;;;;;17.05;2.08;;;;;;;10.59;61.69;103644.22;4972860;28;20045;-60
2022/01/21 11:44:22;;;;;;;12.48;2.00;;;;;;;10.57;62.33;103643.22;4978824;28;20037;-59
2022/01/21 11:47:15;;;;;;;17.95;2.75;;;;;;;10.75;61.77;103635.53;4977197;28;20153;-59
2022/01/21 11:49:35;;;;;;;14.35;2.33;;;;;;;10.72;61.67;103638.00;4963969;28;20080;-58
2022/01/21 11:52:11;;;;;;;15.05;2.20;;;;;;;10.65;61.21;103617.56;4961644;28;20470;-59
2022/01/21 11:54:38;;;;;;;15.20;2.50;;;;;;;10.71;61.78;103617.91;4981170;28;20054;-60
2022/01/21 11:57:05;;;;;;;12.27;2.35;;;;;;;10.66;62.19;103620.28;4980381;28;20049;-59
2022/01/21 11:59:36;;;;;;;12.43;2.33;;;;;;;10.64;61.50;103618.38;4974663;28;20568;-59
2022/01/21 12:02:25;;;;;;;12.98;1.98;;;;;;;10.61;62.05;103610.41;4975533;28;20081;-58
2022/01/21 12:04:59;;;;;;;13.95;2.75;;;;;;;10.59;62.08;103618.13;4978320;28;20108;-59
2022/01/21 12:07:33;;;;;;;12.90;2.28;;;;;;;10.27;61.78;103620.59;4966702;28;20052;-59
2022/01/21 12:10:00;;;;;;;14.43;2.50;;;;;;;10.45;61.82;103621.66;4981047;28;20042;-59